createdAt,value
2023-02-20T06:51:41.157Z,4.26
2023-02-20T06:52:41.124Z,4.29
2023-02-20T06:53:41.105Z,4.34
2023-02-20T06:54:41.093Z,4.34
2023-02-20T06:55:41.083Z,4.34
2023-02-20T06:56:41.062Z,4.34
2023-02-20T06:57:41.064Z,4.33
2023-02-20T06:58:41.068Z,4.37
2023-02-20T06:59:41.027Z,4.40
2023-02-20T07:00:41.106Z,4.37
2023-02-20T07:01:41.142Z,4.50
2023-02-20T07:02:41.094Z,4.44
2023-02-20T07:03:40.992Z,4.55
2023-02-20T07:04:40.963Z,4.54
2023-02-20T07:05:41.005Z,4.58
2023-02-20T07:06:40.940Z,4.51
2023-02-20T07:07:40.973Z,4.55
2023-02-20T07:08:40.947Z,4.54
2023-02-20T07:09:42.452Z,4.57
2023-02-20T07:10:40.896Z,4.51
2023-02-20T07:11:40.987Z,4.65
2023-02-20T07:12:40.874Z,4.55
2023-02-20T07:13:40.890Z,4.64
2023-02-20T07:14:40.871Z,4.64
2023-02-20T07:15:40.876Z,4.70
2023-02-20T07:16:40.830Z,4.69
2023-02-20T07:17:40.821Z,4.67
2023-02-20T07:18:40.841Z,4.77
2023-02-20T07:19:40.813Z,4.70
2023-02-20T07:20:40.783Z,4.80
2023-02-20T07:21:40.788Z,4.65
2023-02-20T07:22:40.796Z,4.76
2023-02-20T07:23:40.797Z,4.79
2023-02-20T07:24:40.750Z,4.77
2023-02-20T07:25:40.749Z,4.70
2023-02-20T07:26:40.713Z,4.77
2023-02-20T07:27:40.729Z,4.89
2023-02-20T07:28:40.705Z,4.95
2023-02-20T07:29:40.700Z,4.95
2023-02-20T07:30:40.842Z,4.92
2023-02-20T07:31:40.827Z,4.99
2023-02-20T07:32:40.661Z,5.01
2023-02-20T07:33:40.665Z,5.05
2023-02-20T07:34:42.103Z,5.07
2023-02-20T07:35:40.630Z,5.05
2023-02-20T07:36:40.602Z,5.19
2023-02-20T07:37:40.607Z,5.28
2023-02-20T07:38:40.578Z,5.13
2023-02-20T07:39:40.623Z,5.30
2023-02-20T07:40:40.586Z,5.23
2023-02-20T07:41:40.548Z,5.30
2023-02-20T07:42:40.549Z,5.25
2023-02-20T07:43:40.538Z,5.46
2023-02-20T07:44:40.528Z,5.40
2023-02-20T07:45:40.585Z,5.48
2023-02-20T07:46:40.554Z,5.46
2023-02-20T07:47:40.496Z,5.50
2023-02-20T07:48:40.465Z,5.56
2023-02-20T07:49:40.602Z,5.52
2023-02-20T07:50:40.455Z,5.50
2023-02-20T07:51:40.436Z,5.55
2023-02-20T07:52:40.433Z,5.67
2023-02-20T07:53:40.426Z,5.60
2023-02-20T07:54:40.419Z,5.77
2023-02-20T07:55:40.414Z,5.78
2023-02-20T07:56:40.377Z,5.93
2023-02-20T07:57:40.375Z,5.98
2023-02-20T07:58:40.370Z,6.22
2023-02-20T07:59:40.367Z,6.29
2023-02-20T08:00:40.328Z,6.36
2023-02-20T08:01:40.398Z,6.53
2023-02-20T08:02:40.320Z,6.69
2023-02-20T08:03:40.295Z,6.73
2023-02-20T08:04:40.313Z,6.84
2023-02-20T08:05:49.038Z,6.97
2023-02-20T08:06:41.258Z,7.08
2023-02-20T08:07:40.289Z,7.15
2023-02-20T08:08:40.248Z,7.23
2023-02-20T08:09:40.243Z,7.29
2023-02-20T08:10:40.211Z,7.50
2023-02-20T08:11:40.250Z,7.50
2023-02-20T08:12:40.202Z,7.62
2023-02-20T08:13:40.198Z,7.78
2023-02-20T08:14:40.209Z,7.85
2023-02-20T08:15:40.157Z,7.93
2023-02-20T08:16:40.304Z,7.96
2023-02-20T08:17:46.619Z,8.04
2023-02-20T08:18:41.124Z,8.10
2023-02-20T08:19:40.138Z,8.11
2023-02-20T08:20:40.100Z,8.17
2023-02-20T08:21:40.090Z,8.11
2023-02-20T08:22:41.934Z,8.21
2023-02-20T08:23:40.098Z,8.26
2023-02-20T08:24:40.064Z,8.26
2023-02-20T08:25:40.092Z,8.20
2023-02-20T08:26:40.049Z,8.25
2023-02-20T08:27:40.055Z,8.32
2023-02-20T08:28:40.021Z,8.40
2023-02-20T08:29:40.026Z,8.40
2023-02-20T08:30:40.141Z,8.48
2023-02-20T08:31:40.074Z,8.60
2023-02-20T08:32:40.110Z,8.69
2023-02-20T08:33:39.966Z,8.79
2023-02-20T08:34:39.968Z,8.83
2023-02-20T08:35:39.990Z,8.78
2023-02-20T08:36:39.926Z,8.81
2023-02-20T08:37:39.912Z,8.94
2023-02-20T08:38:39.897Z,8.94
2023-02-20T08:39:39.910Z,8.93
2023-02-20T08:40:39.910Z,9.04
2023-02-20T08:41:39.877Z,8.99
2023-02-20T08:42:39.921Z,9.05
2023-02-20T08:43:39.868Z,9.05
2023-02-20T08:44:39.829Z,9.18
2023-02-20T08:45:39.872Z,9.30
2023-02-20T08:46:39.817Z,9.06
2023-02-20T08:47:39.796Z,9.16
2023-02-20T08:48:39.787Z,9.27
2023-02-20T08:49:39.777Z,9.24
2023-02-20T08:50:39.783Z,9.25
2023-02-20T08:51:39.763Z,9.13
2023-02-20T08:52:39.733Z,9.04
2023-02-20T08:53:39.741Z,9.02
2023-02-20T08:54:39.721Z,8.90
2023-02-20T08:55:39.715Z,9.01
2023-02-20T08:56:39.716Z,8.97
2023-02-20T08:57:39.680Z,8.96
2023-02-20T08:58:39.663Z,8.96
2023-02-20T08:59:39.702Z,9.05
2023-02-20T09:00:39.715Z,9.04
2023-02-20T09:01:39.713Z,9.06
2023-02-20T09:02:39.722Z,9.20
2023-02-20T09:03:39.611Z,9.16
2023-02-20T09:04:39.618Z,9.16
2023-02-20T09:05:39.629Z,9.09
2023-02-20T09:06:39.587Z,8.97
2023-02-20T09:07:39.579Z,9.04
2023-02-20T09:08:39.563Z,8.99
2023-02-20T09:09:39.545Z,8.97
2023-02-20T09:10:39.541Z,9.01
2023-02-20T09:11:39.528Z,8.83
2023-02-20T09:12:39.507Z,8.81
2023-02-20T09:13:39.508Z,8.87
2023-02-20T09:14:39.485Z,8.88
2023-02-20T09:15:39.552Z,8.96
2023-02-20T09:16:39.528Z,8.84
2023-02-20T09:17:39.504Z,8.97
2023-02-20T09:18:39.439Z,9.12
2023-02-20T09:19:39.536Z,9.21
2023-02-20T09:20:39.450Z,9.35
2023-02-20T09:21:39.420Z,9.46
2023-02-20T09:22:39.393Z,9.49
2023-02-20T09:23:39.387Z,9.68
2023-02-20T09:24:39.375Z,9.85
2023-02-20T09:25:39.393Z,10.09
2023-02-20T09:26:39.385Z,10.22
2023-02-20T09:27:39.364Z,10.43
2023-02-20T09:28:39.337Z,10.73
2023-02-20T09:29:39.335Z,10.99
2023-02-20T09:30:39.448Z,11.19
2023-02-20T09:31:39.503Z,11.46
2023-02-20T09:32:39.387Z,11.71
2023-02-20T09:33:39.280Z,11.90
2023-02-20T09:34:39.272Z,12.26
2023-02-20T09:35:39.276Z,12.48
2023-02-20T09:36:39.260Z,12.63
2023-02-20T09:37:39.229Z,12.79
2023-02-20T09:38:39.212Z,13.00
2023-02-20T09:39:39.219Z,12.99
2023-02-20T09:40:39.189Z,13.02
2023-02-20T09:41:39.226Z,13.07
2023-02-20T09:42:39.164Z,13.07
2023-02-20T09:43:39.171Z,13.04
2023-02-20T09:44:39.154Z,13.12
2023-02-20T09:45:39.187Z,13.00
2023-02-20T09:46:39.119Z,13.03
2023-02-20T09:47:39.161Z,12.88
2023-02-20T09:48:39.108Z,12.75
2023-02-20T09:49:39.096Z,12.60
2023-02-20T09:50:39.074Z,12.44
2023-02-20T09:51:39.066Z,12.38
2023-02-20T09:52:39.077Z,12.39
2023-02-20T09:53:39.043Z,12.31
2023-02-20T09:54:39.040Z,12.51
2023-02-20T09:55:39.040Z,12.42
2023-02-20T09:56:39.019Z,12.44
2023-02-20T09:57:39.021Z,12.37
2023-02-20T09:58:39.000Z,12.27
2023-02-20T09:59:38.985Z,12.31
2023-02-20T10:00:38.965Z,12.20
2023-02-20T10:01:38.960Z,12.34
2023-02-20T10:02:39.107Z,12.42
2023-02-20T10:03:38.946Z,12.31
2023-02-20T10:04:38.929Z,12.29
2023-02-20T10:05:38.915Z,12.34
2023-02-20T10:06:38.895Z,12.44
2023-02-20T10:07:38.905Z,12.57
2023-02-20T10:08:38.890Z,12.52
2023-02-20T10:09:38.871Z,12.54
2023-02-20T10:10:38.857Z,12.57
2023-02-20T10:11:38.837Z,12.70
2023-02-20T10:12:38.853Z,12.64
2023-02-20T10:13:38.823Z,12.71
2023-02-20T10:14:38.802Z,12.75
2023-02-20T10:15:38.807Z,12.96
2023-02-20T10:16:38.843Z,12.87
2023-02-20T10:17:38.785Z,12.92
2023-02-20T10:18:38.771Z,12.89
2023-02-20T10:19:38.787Z,12.93
2023-02-20T10:20:38.755Z,12.99
2023-02-20T10:21:38.735Z,12.95
2023-02-20T10:22:38.744Z,13.21
2023-02-20T10:23:38.700Z,13.14
2023-02-20T10:24:38.706Z,13.32
2023-02-20T10:25:38.676Z,13.44
2023-02-20T10:26:38.730Z,13.56
2023-02-20T10:27:38.691Z,13.61
2023-02-20T10:28:38.686Z,13.71
2023-02-20T10:29:38.645Z,13.71
2023-02-20T10:30:38.716Z,13.80
2023-02-20T10:31:38.731Z,13.77
2023-02-20T10:32:38.631Z,13.79
2023-02-20T10:33:38.600Z,13.73
2023-02-20T10:34:38.581Z,13.61
2023-02-20T10:35:38.602Z,13.56
2023-02-20T10:36:38.555Z,13.62
2023-02-20T10:37:47.076Z,13.56
2023-02-20T10:38:39.540Z,13.55
2023-02-20T10:39:38.518Z,13.44
2023-02-20T10:40:38.511Z,13.25
2023-02-20T10:41:38.509Z,13.30
2023-02-20T10:42:38.506Z,13.32
2023-02-20T10:43:38.477Z,13.20
2023-02-20T10:44:50.169Z,13.29
2023-02-20T10:45:39.450Z,13.30
2023-02-20T10:46:48.525Z,13.32
2023-02-20T10:47:39.458Z,13.30
2023-02-20T10:48:38.436Z,13.32
2023-02-20T10:49:39.332Z,13.20
2023-02-20T10:50:38.404Z,13.17
2023-02-20T10:51:38.409Z,13.03
2023-02-20T10:52:38.406Z,13.03
2023-02-20T10:53:38.372Z,12.92
2023-02-20T10:54:38.370Z,12.85
2023-02-20T10:55:38.341Z,12.82
2023-02-20T10:56:38.332Z,12.66
2023-02-20T10:57:38.349Z,12.71
2023-02-20T10:58:38.306Z,12.74
2023-02-20T10:59:38.322Z,12.64
2023-02-20T11:00:38.280Z,12.60
2023-02-20T11:01:38.346Z,12.60
2023-02-20T11:02:38.302Z,12.60
2023-02-20T11:03:38.266Z,12.45
2023-02-20T11:04:38.330Z,12.56
2023-02-20T11:05:38.216Z,12.52
2023-02-20T11:06:38.235Z,12.46
2023-02-20T11:07:38.227Z,12.51
2023-02-20T11:08:38.224Z,12.52
2023-02-20T11:09:38.192Z,12.46
2023-02-20T11:10:38.181Z,12.46
2023-02-20T11:11:38.147Z,12.52
2023-02-20T11:12:38.156Z,12.39
2023-02-20T11:13:38.152Z,12.49
2023-02-20T11:14:40.977Z,12.44
2023-02-20T11:15:38.139Z,12.41
2023-02-20T11:16:38.097Z,12.54
2023-02-20T11:17:38.100Z,12.49
2023-02-20T11:18:38.104Z,12.49
2023-02-20T11:19:38.132Z,12.48
2023-02-20T11:20:38.058Z,12.57
2023-02-20T11:21:38.046Z,12.57
2023-02-20T11:22:38.027Z,12.52
2023-02-20T11:23:38.066Z,12.56
2023-02-20T11:24:38.044Z,12.59
2023-02-20T11:25:37.988Z,12.66
2023-02-20T11:26:37.994Z,12.74
2023-02-20T11:27:37.988Z,12.69
2023-02-20T11:28:37.996Z,12.85
2023-02-20T11:29:37.944Z,12.82
2023-02-20T11:30:37.997Z,12.92
2023-02-20T11:31:38.029Z,12.97
2023-02-20T11:32:37.929Z,12.99
2023-02-20T11:33:37.917Z,13.03
2023-02-20T11:34:37.926Z,13.11
2023-02-20T11:35:37.878Z,13.03
2023-02-20T11:36:37.888Z,13.15
2023-02-20T11:37:49.228Z,13.18
2023-02-20T11:38:38.849Z,13.30
2023-02-20T11:39:37.892Z,13.38
2023-02-20T11:40:37.828Z,13.47
2023-02-20T11:41:37.815Z,13.52
2023-02-20T11:42:37.856Z,13.71
2023-02-20T11:43:37.802Z,13.94
2023-02-20T11:44:37.809Z,14.04
2023-02-20T11:45:37.769Z,14.31
2023-02-20T11:46:37.792Z,14.47
2023-02-20T11:47:37.743Z,14.75
2023-02-20T11:48:40.664Z,14.90
2023-02-20T11:49:37.924Z,15.09
2023-02-20T11:50:37.727Z,15.28
2023-02-20T11:51:37.719Z,15.43
2023-02-20T11:52:37.706Z,15.49
2023-02-20T11:53:37.690Z,15.61
2023-02-20T11:54:37.696Z,15.63
2023-02-20T11:55:37.714Z,15.64
2023-02-20T11:56:37.662Z,15.63
2023-02-20T11:57:37.654Z,15.70
2023-02-20T11:58:37.619Z,15.76
2023-02-20T11:59:37.636Z,15.78
2023-02-20T12:00:37.597Z,15.67
2023-02-20T12:01:37.581Z,15.68
2023-02-20T12:02:37.636Z,15.66
2023-02-20T12:03:37.578Z,15.70
2023-02-20T12:04:37.570Z,15.84
2023-02-20T12:05:37.585Z,16.03
2023-02-20T12:06:37.540Z,16.25
2023-02-20T12:07:37.526Z,16.25
2023-02-20T12:08:37.521Z,16.38
2023-02-20T12:09:37.519Z,16.34
2023-02-20T12:10:37.486Z,16.42
2023-02-20T12:11:37.502Z,16.49
2023-02-20T12:12:37.460Z,16.38
2023-02-20T12:13:37.458Z,16.40
2023-02-20T12:14:37.461Z,16.38
2023-02-20T12:15:37.435Z,16.48
2023-02-20T12:16:37.510Z,16.52
2023-02-20T12:17:37.411Z,16.62
2023-02-20T12:18:37.409Z,16.75
2023-02-20T12:19:37.380Z,16.98
2023-02-20T12:20:37.399Z,17.20
2023-02-20T12:21:37.367Z,17.20
2023-02-20T12:22:37.357Z,17.26
2023-02-20T12:23:37.363Z,17.46
2023-02-20T12:24:37.336Z,17.64
2023-02-20T12:25:37.307Z,17.79
2023-02-20T12:26:38.489Z,17.91
2023-02-20T12:27:37.312Z,17.87
2023-02-20T12:28:37.288Z,18.12
2023-02-20T12:29:37.267Z,18.17
2023-02-20T12:30:37.318Z,18.19
2023-02-20T12:31:37.346Z,18.31
2023-02-20T12:32:37.246Z,18.42
2023-02-20T12:33:37.230Z,18.46
2023-02-20T12:34:37.211Z,18.46
2023-02-20T12:35:37.205Z,18.34
2023-02-20T12:36:37.220Z,18.28
2023-02-20T12:37:37.184Z,18.24
2023-02-20T12:38:37.178Z,18.31
2023-02-20T12:39:37.148Z,18.37
2023-02-20T12:40:37.141Z,18.44
2023-02-20T12:41:37.139Z,18.50
2023-02-20T12:42:37.138Z,18.52
2023-02-20T12:43:37.122Z,18.59
2023-02-20T12:44:37.107Z,18.65
2023-02-20T12:45:37.094Z,18.77
2023-02-20T12:46:37.133Z,18.77
2023-02-20T12:47:37.068Z,18.80
2023-02-20T12:48:37.048Z,18.72
2023-02-20T12:49:37.044Z,18.82
2023-02-20T12:50:37.044Z,18.83
2023-02-20T12:51:37.028Z,18.82
2023-02-20T12:52:37.017Z,18.83
2023-02-20T12:53:37.002Z,18.86
2023-02-20T12:54:37.001Z,18.82
2023-02-20T12:55:36.985Z,18.72
2023-02-20T12:56:36.976Z,18.65
2023-02-20T12:57:36.976Z,18.59
2023-02-20T12:58:36.938Z,18.47
2023-02-20T12:59:36.963Z,18.43
2023-02-20T13:00:36.970Z,18.61
2023-02-20T13:01:40.232Z,18.59
2023-02-20T13:02:42.012Z,18.49
2023-02-20T13:03:37.955Z,18.54
2023-02-20T13:04:36.883Z,18.44
2023-02-20T13:05:36.852Z,18.46
2023-02-20T13:06:36.863Z,18.43
2023-02-20T13:07:36.864Z,18.25
2023-02-20T13:08:36.825Z,18.15
2023-02-20T13:09:36.828Z,18.04
2023-02-20T13:10:36.799Z,17.85
2023-02-20T13:11:36.803Z,17.87
2023-02-20T13:12:36.795Z,17.74
2023-02-20T13:13:36.763Z,17.59
2023-02-20T13:14:36.756Z,17.67
2023-02-20T13:15:36.780Z,17.47
2023-02-20T13:16:36.753Z,17.48
2023-02-20T13:17:36.744Z,17.40
2023-02-20T13:18:36.709Z,17.48
2023-02-20T13:19:36.707Z,17.51
2023-02-20T13:20:36.702Z,17.51
2023-02-20T13:21:36.671Z,17.51
2023-02-20T13:22:36.694Z,17.50
2023-02-20T13:23:36.648Z,17.51
2023-02-20T13:24:36.667Z,17.40
2023-02-20T13:25:36.628Z,17.43
2023-02-20T13:26:36.660Z,17.43
2023-02-20T13:27:36.648Z,17.54
2023-02-20T13:28:36.600Z,17.43
2023-02-20T13:29:36.586Z,17.48
2023-02-20T13:30:36.624Z,17.38
2023-02-20T13:31:36.752Z,17.35
2023-02-20T13:32:36.610Z,17.33
2023-02-20T13:33:36.560Z,17.22
2023-02-20T13:34:36.544Z,17.06
2023-02-20T13:35:36.525Z,16.83
2023-02-20T13:36:36.528Z,16.62
2023-02-20T13:37:36.511Z,16.44
2023-02-20T13:38:36.523Z,16.22
2023-02-20T13:39:36.469Z,16.15
2023-02-20T13:40:36.482Z,16.01
2023-02-20T13:41:36.445Z,15.89
2023-02-20T13:42:36.452Z,15.75
2023-02-20T13:43:36.447Z,15.68
2023-02-20T13:44:36.431Z,15.49
2023-02-20T13:45:36.444Z,15.49
2023-02-20T13:46:36.405Z,15.36
2023-02-20T13:47:36.440Z,15.24
2023-02-20T13:48:36.386Z,15.21
2023-02-20T13:49:36.373Z,15.26
2023-02-20T13:50:36.377Z,15.13
2023-02-20T13:51:36.348Z,15.06
2023-02-20T13:52:36.329Z,15.03
2023-02-20T13:53:36.403Z,15.03
2023-02-20T13:54:36.346Z,14.99
2023-02-20T13:55:36.300Z,14.94
2023-02-20T13:56:36.294Z,14.90
2023-02-20T13:57:36.267Z,14.88
2023-02-20T13:58:36.272Z,14.95
2023-02-20T13:59:36.255Z,14.87
2023-02-20T14:00:36.261Z,14.80
2023-02-20T14:01:36.306Z,14.80
2023-02-20T14:02:36.211Z,14.80
2023-02-20T14:03:36.272Z,14.67
2023-02-20T14:04:36.983Z,14.65
2023-02-20T14:05:36.187Z,14.67
2023-02-20T14:06:36.179Z,14.78
2023-02-20T14:07:36.151Z,14.81
2023-02-20T14:08:36.176Z,14.91
2023-02-20T14:09:36.130Z,14.94
2023-02-20T14:10:36.121Z,14.87
2023-02-20T14:11:36.119Z,14.64
2023-02-20T14:12:36.102Z,14.60
2023-02-20T14:13:40.357Z,14.53
2023-02-20T14:14:36.073Z,14.27
2023-02-20T14:15:36.065Z,14.19
2023-02-20T14:16:36.119Z,14.24
2023-02-20T14:17:36.043Z,14.35
2023-02-20T14:18:36.066Z,14.37
2023-02-20T14:19:36.072Z,14.46
2023-02-20T14:20:36.011Z,14.62
2023-02-20T14:21:35.996Z,14.69
2023-02-20T14:22:36.010Z,14.81
2023-02-20T14:23:35.991Z,14.95
2023-02-20T14:24:35.959Z,15.05
2023-02-20T14:25:35.964Z,15.11
2023-02-20T14:26:35.956Z,15.23
2023-02-20T14:27:35.941Z,15.27
2023-02-20T14:28:35.938Z,15.30
2023-02-20T14:29:35.916Z,15.02
2023-02-20T14:30:35.936Z,15.06
2023-02-20T14:31:36.081Z,15.09
2023-02-20T14:32:35.923Z,15.13
2023-02-20T14:33:35.871Z,15.19
2023-02-20T14:34:35.846Z,15.31
2023-02-20T14:35:35.871Z,15.45
2023-02-20T14:36:35.836Z,15.48
2023-02-20T14:37:35.827Z,15.49
2023-02-20T14:38:35.828Z,15.56
2023-02-20T14:39:35.789Z,15.46
2023-02-20T14:40:35.805Z,15.42
2023-02-20T14:41:35.782Z,15.36
2023-02-20T14:42:35.767Z,15.42
2023-02-20T14:43:35.770Z,15.31
2023-02-20T14:44:35.744Z,15.45
2023-02-20T14:45:35.889Z,15.46
2023-02-20T14:46:35.723Z,15.54
2023-02-20T14:47:35.829Z,15.52
2023-02-20T14:48:35.702Z,15.43
2023-02-20T14:49:35.690Z,15.54
2023-02-20T14:50:35.673Z,15.54
2023-02-20T14:51:35.678Z,15.35
2023-02-20T14:52:35.639Z,15.03
2023-02-20T14:53:35.635Z,14.95
2023-02-20T14:54:35.648Z,14.74
2023-02-20T14:55:35.657Z,14.61
2023-02-20T14:56:35.624Z,14.57
2023-02-20T14:57:35.612Z,14.32
2023-02-20T14:58:35.578Z,14.27
2023-02-20T14:59:35.596Z,14.20
2023-02-20T15:00:35.562Z,14.04
2023-02-20T15:01:35.634Z,14.02
2023-02-20T15:02:35.540Z,13.80
2023-02-20T15:03:35.614Z,13.76
2023-02-20T15:04:35.528Z,13.71
2023-02-20T15:05:35.508Z,13.61
2023-02-20T15:06:35.492Z,13.51
2023-02-20T15:07:35.518Z,13.38
2023-02-20T15:08:35.545Z,13.30
2023-02-20T15:09:35.487Z,13.11
2023-02-20T15:10:35.436Z,13.07
2023-02-20T15:11:35.427Z,13.11
2023-02-20T15:12:35.424Z,13.06
2023-02-20T15:13:35.404Z,13.00
2023-02-20T15:14:35.419Z,12.93
2023-02-20T15:15:35.390Z,12.85
2023-02-20T15:16:35.424Z,12.82
2023-02-20T15:17:35.359Z,12.92
2023-02-20T15:18:35.345Z,12.70
2023-02-20T15:19:35.350Z,12.87
2023-02-20T15:20:35.338Z,12.79
2023-02-20T15:21:35.337Z,12.69
2023-02-20T15:22:35.314Z,12.75
2023-02-20T15:23:35.349Z,12.64
2023-02-20T15:24:35.294Z,12.66
2023-02-20T15:25:35.282Z,12.71
2023-02-20T15:26:35.264Z,12.54
2023-02-20T15:27:35.284Z,12.49
2023-02-20T15:28:35.231Z,12.49
2023-02-20T15:29:35.258Z,12.46
2023-02-20T15:30:35.407Z,12.33
2023-02-20T15:31:35.340Z,12.39
2023-02-20T15:32:35.197Z,12.34
2023-02-20T15:33:35.194Z,12.31
2023-02-20T15:34:35.184Z,12.24
2023-02-20T15:35:35.156Z,12.23
2023-02-20T15:36:35.156Z,12.19
2023-02-20T15:37:38.919Z,12.23
2023-02-20T15:38:36.155Z,12.15
2023-02-20T15:39:35.159Z,12.11
2023-02-20T15:40:35.146Z,12.04
2023-02-20T15:41:35.101Z,11.97
2023-02-20T15:42:35.072Z,11.93
2023-02-20T15:43:47.063Z,11.80
2023-02-20T15:44:36.074Z,11.82
2023-02-20T15:45:35.042Z,11.87
2023-02-20T15:46:35.113Z,11.77
2023-02-20T15:47:35.021Z,11.74
2023-02-20T15:48:35.011Z,11.67
2023-02-20T15:49:35.015Z,11.53
2023-02-20T15:50:34.994Z,11.54
2023-02-20T15:51:34.976Z,11.49
2023-02-20T15:52:34.971Z,11.44
2023-02-20T15:53:34.967Z,11.41
2023-02-20T15:54:34.981Z,11.39
2023-02-20T15:55:34.968Z,11.46
2023-02-20T15:56:34.914Z,11.36
2023-02-20T15:57:34.905Z,11.31
2023-02-20T15:58:35.661Z,11.31
2023-02-20T15:59:34.904Z,11.27
2023-02-20T16:00:34.869Z,11.20
2023-02-20T16:01:34.911Z,11.17
2023-02-20T16:02:34.974Z,11.24
2023-02-20T16:03:49.219Z,11.14
2023-02-20T16:04:35.835Z,11.07
2023-02-20T16:05:34.818Z,11.02
2023-02-20T16:06:34.812Z,11.09
2023-02-20T16:07:34.824Z,10.99
2023-02-20T16:08:34.782Z,10.98
2023-02-20T16:09:34.784Z,11.09
2023-02-20T16:10:34.754Z,10.92
2023-02-20T16:11:34.774Z,10.96
2023-02-20T16:12:34.732Z,10.91
2023-02-20T16:13:34.726Z,10.91
2023-02-20T16:14:34.722Z,10.86
2023-02-20T16:15:34.701Z,10.84
2023-02-20T16:16:34.718Z,10.81
2023-02-20T16:17:34.678Z,10.77
2023-02-20T16:18:34.662Z,10.71
2023-02-20T16:19:42.408Z,10.74
2023-02-20T16:20:35.683Z,10.74
2023-02-20T16:21:34.637Z,10.76
2023-02-20T16:22:34.619Z,10.62
2023-02-20T16:23:34.613Z,10.70
2023-02-20T16:24:34.610Z,10.53
2023-02-20T16:25:34.625Z,10.51
2023-02-20T16:26:34.588Z,10.55
2023-02-20T16:27:34.588Z,10.56
2023-02-20T16:28:34.548Z,10.47
2023-02-20T16:29:34.554Z,10.43
2023-02-20T16:30:34.929Z,10.42
2023-02-20T16:31:34.647Z,10.37
2023-02-20T16:32:34.548Z,10.25
2023-02-20T16:33:34.521Z,10.32
2023-02-20T16:34:34.560Z,10.26
2023-02-20T16:35:34.472Z,10.15
2023-02-20T16:36:34.464Z,10.24
2023-02-20T16:37:34.474Z,10.15
2023-02-20T16:38:34.454Z,10.17
2023-02-20T16:39:34.449Z,10.17
2023-02-20T16:40:34.430Z,10.10
2023-02-20T16:41:34.464Z,10.06
2023-02-20T16:42:34.404Z,10.04
2023-02-20T16:43:34.408Z,10.04
2023-02-20T16:44:34.382Z,9.97
2023-02-20T16:45:34.356Z,9.97
2023-02-20T16:46:38.594Z,9.91
2023-02-20T16:47:34.354Z,10.03
2023-02-20T16:48:34.336Z,9.94
2023-02-20T16:49:34.350Z,9.89
2023-02-20T16:50:34.473Z,9.94
2023-02-20T16:51:34.294Z,9.94
2023-02-20T16:52:34.291Z,9.91
2023-02-20T16:53:34.276Z,9.91
2023-02-20T16:54:34.258Z,9.91
2023-02-20T16:55:34.269Z,9.86
2023-02-20T16:56:34.230Z,9.93
2023-02-20T16:57:34.237Z,9.82
2023-02-20T16:58:34.207Z,9.86
2023-02-20T16:59:34.260Z,9.66
2023-02-20T17:00:34.931Z,9.76
2023-02-20T17:01:35.986Z,9.75
2023-02-20T17:02:34.174Z,9.73
2023-02-20T17:03:34.167Z,9.61
2023-02-20T17:04:34.223Z,9.61
2023-02-20T17:05:34.156Z,9.60
2023-02-20T17:06:34.131Z,9.70
2023-02-20T17:07:34.120Z,9.67
2023-02-20T17:08:34.113Z,9.60
2023-02-20T17:09:42.558Z,9.63
2023-02-20T17:10:35.116Z,9.49
2023-02-20T17:11:34.083Z,9.53
2023-02-20T17:12:34.106Z,9.46
2023-02-20T17:13:34.052Z,9.57
2023-02-20T17:14:34.072Z,9.46
2023-02-20T17:15:36.197Z,9.53
2023-02-20T17:16:34.093Z,9.50
2023-02-20T17:17:34.006Z,9.48
2023-02-20T17:18:33.981Z,9.45
2023-02-20T17:19:33.986Z,9.49
2023-02-20T17:20:33.974Z,9.48
2023-02-20T17:21:33.979Z,9.52
2023-02-20T17:22:33.934Z,9.53
2023-02-20T17:23:34.481Z,9.42
2023-02-20T17:24:33.919Z,9.45
2023-02-20T17:25:33.917Z,9.40
2023-02-20T17:26:33.900Z,9.32
2023-02-20T17:27:33.907Z,9.32
2023-02-20T17:28:33.881Z,9.40
2023-02-20T17:29:33.861Z,9.34
2023-02-20T17:30:33.925Z,9.34
2023-02-20T17:31:33.984Z,9.46
2023-02-20T17:32:33.853Z,9.39
2023-02-20T17:33:33.840Z,9.39
2023-02-20T17:34:33.801Z,9.39
2023-02-20T17:35:33.831Z,9.35
2023-02-20T17:36:33.781Z,9.24
2023-02-20T17:37:34.645Z,9.24
2023-02-20T17:38:33.765Z,9.21
2023-02-20T17:39:33.759Z,9.25
2023-02-20T17:40:33.765Z,9.27
2023-02-20T17:41:33.725Z,9.21
2023-02-20T17:42:33.708Z,9.24
2023-02-20T17:43:35.916Z,9.21
2023-02-20T17:44:33.741Z,9.24
2023-02-20T17:45:33.751Z,9.13
2023-02-20T17:46:33.705Z,9.20
2023-02-20T17:47:33.692Z,9.09
2023-02-20T17:48:33.651Z,9.05
2023-02-20T17:49:33.644Z,9.12
2023-02-20T17:50:33.641Z,9.15
2023-02-20T17:51:33.619Z,9.12
2023-02-20T17:52:33.622Z,9.09
2023-02-20T17:53:33.598Z,9.05
2023-02-20T17:54:33.567Z,9.10
2023-02-20T17:55:34.192Z,9.06
2023-02-20T17:56:33.560Z,9.02
2023-02-20T17:57:33.548Z,9.09
2023-02-20T17:58:33.521Z,8.99
2023-02-20T17:59:33.536Z,9.04
2023-02-20T18:00:33.653Z,8.99
2023-02-20T18:01:33.513Z,9.01
2023-02-20T18:02:33.490Z,8.99
2023-02-20T18:03:33.558Z,8.99
2023-02-20T18:04:33.498Z,9.02
2023-02-20T18:05:33.493Z,8.94
2023-02-20T18:06:33.430Z,9.01
2023-02-20T18:07:33.435Z,8.96
2023-02-20T18:08:33.423Z,9.02
2023-02-20T18:09:33.401Z,8.88
2023-02-20T18:10:33.442Z,8.87
2023-02-20T18:11:33.390Z,8.93
2023-02-20T18:12:33.372Z,8.90
2023-02-20T18:13:33.374Z,8.99
2023-02-20T18:14:33.365Z,8.90
2023-02-20T18:15:33.339Z,8.99
2023-02-20T18:16:33.363Z,8.93
2023-02-20T18:17:33.339Z,8.88
2023-02-20T18:18:33.307Z,8.96
2023-02-20T18:19:33.324Z,8.94
2023-02-20T18:20:33.285Z,8.76
2023-02-20T18:21:33.289Z,8.79
2023-02-20T18:22:33.260Z,8.81
2023-02-20T18:23:33.260Z,8.84
2023-02-20T18:24:33.224Z,8.84
2023-02-20T18:25:41.302Z,9.01
2023-02-20T18:26:34.307Z,8.75
2023-02-20T18:27:33.207Z,8.99
2023-02-20T18:28:33.177Z,8.86
2023-02-20T18:29:33.178Z,8.83
2023-02-20T18:30:33.320Z,8.73
2023-02-20T18:31:33.209Z,8.81
2023-02-20T18:32:33.236Z,8.78
2023-02-20T18:33:33.148Z,8.76
2023-02-20T18:34:33.121Z,8.86
2023-02-20T18:35:33.132Z,8.81
2023-02-20T18:36:33.097Z,8.60
2023-02-20T18:37:33.089Z,8.87
2023-02-20T18:38:33.096Z,8.88
2023-02-20T18:39:33.054Z,8.79
2023-02-20T18:40:33.045Z,8.90
2023-02-20T18:41:33.035Z,8.73
2023-02-20T18:42:33.022Z,8.75
2023-02-20T18:43:33.043Z,8.87
2023-02-20T18:44:33.006Z,8.90
2023-02-20T18:45:33.072Z,8.81
2023-02-20T18:46:32.994Z,8.88
2023-02-20T18:47:32.986Z,8.93
2023-02-20T18:48:32.970Z,8.91
2023-02-20T18:49:32.939Z,8.88
2023-02-20T18:50:32.933Z,8.84
2023-02-20T18:51:32.945Z,8.90
2023-02-20T18:52:32.922Z,8.96
2023-02-20T18:53:32.912Z,9.01
2023-02-20T18:54:33.109Z,8.99
2023-02-20T18:55:32.886Z,8.94
2023-02-20T18:56:32.867Z,9.05
2023-02-20T18:57:32.860Z,9.02
2023-02-20T18:58:32.851Z,9.05
2023-02-20T18:59:32.828Z,9.05
2023-02-20T19:00:32.836Z,9.13
2023-02-20T19:01:32.965Z,9.05
2023-02-20T19:02:32.930Z,9.09
2023-02-20T19:03:32.810Z,9.05
2023-02-20T19:04:33.498Z,9.15
2023-02-20T19:05:32.777Z,9.25
2023-02-20T19:06:32.797Z,9.23
2023-02-20T19:07:32.771Z,9.25
2023-02-20T19:08:32.754Z,9.13
2023-02-20T19:09:32.729Z,9.18
2023-02-20T19:10:32.715Z,9.23
2023-02-20T19:11:32.718Z,9.18
2023-02-20T19:12:32.685Z,9.23
2023-02-20T19:13:32.728Z,9.16
2023-02-20T19:14:32.659Z,9.28
2023-02-20T19:15:32.668Z,9.27
2023-02-20T19:16:32.697Z,9.32
2023-02-20T19:17:32.651Z,9.27
2023-02-20T19:18:35.574Z,9.23
2023-02-20T19:19:32.620Z,9.30
2023-02-20T19:20:32.611Z,9.21
2023-02-20T19:21:32.579Z,9.23
2023-02-20T19:22:32.586Z,9.27
2023-02-20T19:23:32.615Z,9.28
2023-02-20T19:24:32.557Z,9.38
2023-02-20T19:25:32.576Z,9.35
2023-02-20T19:26:32.524Z,9.42
2023-02-20T19:27:32.522Z,9.45
2023-02-20T19:28:32.513Z,9.28
2023-02-20T19:29:32.498Z,9.35
2023-02-20T19:30:32.538Z,9.35
2023-02-20T19:31:32.605Z,9.30
2023-02-20T19:32:32.607Z,9.38
2023-02-20T19:33:32.468Z,9.45
2023-02-20T19:34:32.448Z,9.35
2023-02-20T19:35:32.455Z,9.25
2023-02-20T19:36:32.424Z,9.31
2023-02-20T19:37:32.395Z,9.38
2023-02-20T19:38:32.407Z,9.38
2023-02-20T19:39:32.416Z,9.27
2023-02-20T19:40:32.378Z,9.27
2023-02-20T19:41:32.356Z,9.39
2023-02-20T19:42:32.355Z,9.38
2023-02-20T19:43:32.347Z,9.43
2023-02-20T19:44:32.333Z,9.48
2023-02-20T19:45:32.354Z,9.46
2023-02-20T19:46:32.315Z,9.38
2023-02-20T19:47:32.297Z,9.34
2023-02-20T19:48:32.284Z,9.49
2023-02-20T19:49:32.292Z,9.46
2023-02-20T19:50:32.276Z,9.42
2023-02-20T19:51:32.250Z,9.42
2023-02-20T19:52:32.246Z,9.46
2023-02-20T19:53:32.218Z,9.40
2023-02-20T19:54:32.208Z,9.38